Airport View

Enter AWOS ICAO identifier for current METAR.

ex. KFNL

KGDV 212356Z AUTO 28010KT 10SM SCT075 15/08 A2992 RMK AO2 SLP131 60009 T01500083 10167 20111 53005

22 Sep 2019 00:11

Frequency: 135.075

Phone: 406-687-3346

Other Area AWOS: K20U - KSDY - KBHK - KPO1

TAF KGDV 212322Z 2200/2224 28007KT P6SM SCT029 SCT035 BKN080 FM221200 VRB05KT P6SM SKC